sensor_id;sensor_type;location;lat;lon;timestamp;pressure;altitude;pressure_sealevel;temperature;humidity
45040;BME280;30778;53.574;7.770;2023-05-07T00:02:23;101944.81;;;7.97;55.64
45040;BME280;30778;53.574;7.770;2023-05-07T00:04:49;101941.19;;;8.10;55.73
45040;BME280;30778;53.574;7.770;2023-05-07T00:07:15;101935.44;;;7.82;55.96
45040;BME280;30778;53.574;7.770;2023-05-07T00:09:40;101937.16;;;7.83;55.98
45040;BME280;30778;53.574;7.770;2023-05-07T00:12:07;101937.06;;;7.92;55.81
45040;BME280;30778;53.574;7.770;2023-05-07T00:14:32;101933.50;;;7.99;55.68
45040;BME280;30778;53.574;7.770;2023-05-07T00:16:58;101932.66;;;7.97;55.62
45040;BME280;30778;53.574;7.770;2023-05-07T00:19:23;101938.63;;;8.05;55.62
45040;BME280;30778;53.574;7.770;2023-05-07T00:21:48;101931.69;;;8.04;55.53
45040;BME280;30778;53.574;7.770;2023-05-07T00:24:14;101947.50;;;7.89;55.73
45040;BME280;30778;53.574;7.770;2023-05-07T00:26:40;101949.19;;;7.93;55.73
45040;BME280;30778;53.574;7.770;2023-05-07T00:29:05;101952.50;;;8.04;55.59
45040;BME280;30778;53.574;7.770;2023-05-07T00:31:30;101948.06;;;8.14;55.33
45040;BME280;30778;53.574;7.770;2023-05-07T00:33:56;101949.78;;;8.13;55.14
45040;BME280;30778;53.574;7.770;2023-05-07T00:36:21;101948.31;;;7.94;56.00
45040;BME280;30778;53.574;7.770;2023-05-07T00:38:47;101949.53;;;8.33;54.56
45040;BME280;30778;53.574;7.770;2023-05-07T00:41:12;101955.81;;;8.19;54.90
45040;BME280;30778;53.574;7.770;2023-05-07T00:43:38;101953.28;;;8.14;55.06
45040;BME280;30778;53.574;7.770;2023-05-07T00:46:03;101942.59;;;7.60;56.43
45040;BME280;30778;53.574;7.770;2023-05-07T00:48:29;101952.16;;;7.59;56.62
45040;BME280;30778;53.574;7.770;2023-05-07T00:50:56;101940.56;;;7.88;55.80
45040;BME280;30778;53.574;7.770;2023-05-07T00:53:22;101936.28;;;7.84;56.05
45040;BME280;30778;53.574;7.770;2023-05-07T00:55:47;101941.28;;;8.01;55.61
45040;BME280;30778;53.574;7.770;2023-05-07T00:58:14;101941.28;;;8.01;55.47
45040;BME280;30778;53.574;7.770;2023-05-07T01:00:40;101940.38;;;8.03;55.50
45040;BME280;30778;53.574;7.770;2023-05-07T01:03:05;101939.94;;;7.66;56.34
45040;BME280;30778;53.574;7.770;2023-05-07T01:05:31;101931.03;;;7.87;55.58
45040;BME280;30778;53.574;7.770;2023-05-07T01:07:57;101935.13;;;8.06;55.26
45040;BME280;30778;53.574;7.770;2023-05-07T01:10:23;101938.66;;;8.02;55.35
45040;BME280;30778;53.574;7.770;2023-05-07T01:12:50;101938.53;;;8.13;54.98
45040;BME280;30778;53.574;7.770;2023-05-07T01:15:16;101950.03;;;7.93;55.17
45040;BME280;30778;53.574;7.770;2023-05-07T01:17:43;101950.19;;;7.83;55.56
45040;BME280;30778;53.574;7.770;2023-05-07T01:20:19;101944.25;;;7.71;55.86
45040;BME280;30778;53.574;7.770;2023-05-07T01:22:45;101939.84;;;7.77;55.73
45040;BME280;30778;53.574;7.770;2023-05-07T01:25:12;101947.84;;;7.55;56.09
45040;BME280;30778;53.574;7.770;2023-05-07T01:27:42;101951.09;;;7.79;55.44
45040;BME280;30778;53.574;7.770;2023-05-07T01:30:08;101947.97;;;7.43;56.43
45040;BME280;30778;53.574;7.770;2023-05-07T01:32:37;101945.41;;;7.37;56.81
45040;BME280;30778;53.574;7.770;2023-05-07T01:35:05;101947.06;;;7.47;56.42
45040;BME280;30778;53.574;7.770;2023-05-07T01:37:35;101950.53;;;7.46;56.33
45040;BME280;30778;53.574;7.770;2023-05-07T01:40:01;101941.69;;;7.64;55.82
45040;BME280;30778;53.574;7.770;2023-05-07T01:42:28;101946.97;;;7.53;55.94
45040;BME280;30778;53.574;7.770;2023-05-07T01:44:54;101945.81;;;7.85;55.16
45040;BME280;30778;53.574;7.770;2023-05-07T01:47:20;101956.34;;;7.72;55.77
45040;BME280;30778;53.574;7.770;2023-05-07T01:49:46;101953.75;;;7.72;55.95
45040;BME280;30778;53.574;7.770;2023-05-07T01:52:12;101954.44;;;7.90;55.28
45040;BME280;30778;53.574;7.770;2023-05-07T01:54:37;101949.09;;;8.01;54.82
45040;BME280;30778;53.574;7.770;2023-05-07T01:57:03;101948.31;;;7.94;55.00
45040;BME280;30778;53.574;7.770;2023-05-07T01:59:29;101941.38;;;7.94;54.90
45040;BME280;30778;53.574;7.770;2023-05-07T02:01:55;101947.66;;;7.77;55.54
45040;BME280;30778;53.574;7.770;2023-05-07T02:04:20;101943.72;;;8.13;54.72
45040;BME280;30778;53.574;7.770;2023-05-07T02:06:47;101951.66;;;8.02;54.94
45040;BME280;30778;53.574;7.770;2023-05-07T02:09:13;101954.28;;;8.02;55.06
45040;BME280;30778;53.574;7.770;2023-05-07T02:11:41;101950.69;;;8.12;54.43
45040;BME280;30778;53.574;7.770;2023-05-07T02:14:07;101956.72;;;8.16;54.90
45040;BME280;30778;53.574;7.770;2023-05-07T02:16:33;101952.31;;;8.20;54.44
45040;BME280;30778;53.574;7.770;2023-05-07T02:18:58;101952.41;;;8.13;55.16
45040;BME280;30778;53.574;7.770;2023-05-07T02:21:25;101949.00;;;8.10;55.17
45040;BME280;30778;53.574;7.770;2023-05-07T02:23:50;101946.47;;;8.02;55.06
45040;BME280;30778;53.574;7.770;2023-05-07T02:26:16;101945.72;;;7.94;55.08
45040;BME280;30778;53.574;7.770;2023-05-07T02:28:41;101932.88;;;7.80;55.71
45040;BME280;30778;53.574;7.770;2023-05-07T02:31:07;101935.81;;;7.42;56.25
45040;BME280;30778;53.574;7.770;2023-05-07T02:33:33;101937.69;;;7.29;56.08
45040;BME280;30778;53.574;7.770;2023-05-07T02:36:09;101942.09;;;7.21;56.21
45040;BME280;30778;53.574;7.770;2023-05-07T02:38:41;101948.88;;;7.39;55.45
45040;BME280;30778;53.574;7.770;2023-05-07T02:41:06;101944.25;;;7.68;54.83
45040;BME280;30778;53.574;7.770;2023-05-07T02:43:31;101947.88;;;7.52;55.07
45040;BME280;30778;53.574;7.770;2023-05-07T02:46:05;101951.47;;;7.39;55.46
45040;BME280;30778;53.574;7.770;2023-05-07T02:48:32;101949.63;;;7.48;55.10
45040;BME280;30778;53.574;7.770;2023-05-07T02:50:59;101952.19;;;7.56;55.35
45040;BME280;30778;53.574;7.770;2023-05-07T02:53:25;101949.50;;;7.62;54.73
45040;BME280;30778;53.574;7.770;2023-05-07T02:55:59;101958.00;;;7.80;54.68
45040;BME280;30778;53.574;7.770;2023-05-07T02:58:25;101960.81;;;7.61;55.29
45040;BME280;30778;53.574;7.770;2023-05-07T03:00:51;101955.75;;;7.43;55.64
45040;BME280;30778;53.574;7.770;2023-05-07T03:03:26;101949.63;;;7.50;55.47
45040;BME280;30778;53.574;7.770;2023-05-07T03:05:52;101942.84;;;7.33;55.72
45040;BME280;30778;53.574;7.770;2023-05-07T03:08:18;101942.00;;;7.31;55.82
45040;BME280;30778;53.574;7.770;2023-05-07T03:10:43;101940.25;;;7.33;55.76
45040;BME280;30778;53.574;7.770;2023-05-07T03:13:08;101945.78;;;6.94;56.61
45040;BME280;30778;53.574;7.770;2023-05-07T03:15:34;101944.94;;;6.91;56.65
45040;BME280;30778;53.574;7.770;2023-05-07T03:17:59;101942.94;;;7.21;55.88
45040;BME280;30778;53.574;7.770;2023-05-07T03:20:25;101944.69;;;7.19;55.87
45040;BME280;30778;53.574;7.770;2023-05-07T03:22:51;101937.66;;;7.33;55.61
45040;BME280;30778;53.574;7.770;2023-05-07T03:25:17;101937.03;;;7.05;56.44
45040;BME280;30778;53.574;7.770;2023-05-07T03:27:42;101938.47;;;7.37;55.65
45040;BME280;30778;53.574;7.770;2023-05-07T03:30:08;101953.34;;;7.20;56.17
45040;BME280;30778;53.574;7.770;2023-05-07T03:32:34;101950.09;;;6.98;56.57
45040;BME280;30778;53.574;7.770;2023-05-07T03:35:04;101940.44;;;7.12;56.04
45040;BME280;30778;53.574;7.770;2023-05-07T03:37:30;101937.09;;;6.98;56.82
45040;BME280;30778;53.574;7.770;2023-05-07T03:39:56;101944.94;;;6.91;56.74
45040;BME280;30778;53.574;7.770;2023-05-07T03:42:23;101950.72;;;7.26;55.94
45040;BME280;30778;53.574;7.770;2023-05-07T03:44:51;101943.03;;;7.12;56.23
45040;BME280;30778;53.574;7.770;2023-05-07T03:47:16;101951.69;;;7.12;55.85
45040;BME280;30778;53.574;7.770;2023-05-07T03:49:43;101949.16;;;7.03;55.96
45040;BME280;30778;53.574;7.770;2023-05-07T03:52:08;101953.69;;;6.75;56.77
45040;BME280;30778;53.574;7.770;2023-05-07T03:54:34;101947.53;;;6.91;56.04
45040;BME280;30778;53.574;7.770;2023-05-07T03:57:00;101949.25;;;6.93;56.02
45040;BME280;30778;53.574;7.770;2023-05-07T03:59:26;101953.03;;;6.45;57.16
45040;BME280;30778;53.574;7.770;2023-05-07T04:01:51;101949.44;;;6.63;57.22
45040;BME280;30778;53.574;7.770;2023-05-07T04:04:19;101950.38;;;6.58;56.84
45040;BME280;30778;53.574;7.770;2023-05-07T04:06:45;101948.59;;;6.63;56.92
45040;BME280;30778;53.574;7.770;2023-05-07T04:09:11;101953.47;;;7.06;55.41
45040;BME280;30778;53.574;7.770;2023-05-07T04:11:37;101948.53;;;6.72;56.59
45040;BME280;30778;53.574;7.770;2023-05-07T04:14:08;101949.50;;;6.54;57.03
45040;BME280;30778;53.574;7.770;2023-05-07T04:16:34;101957.38;;;6.39;57.05
45040;BME280;30778;53.574;7.770;2023-05-07T04:19:01;101947.03;;;6.28;57.32
45040;BME280;30778;53.574;7.770;2023-05-07T04:21:26;101962.59;;;6.34;57.14
45040;BME280;30778;53.574;7.770;2023-05-07T04:23:53;101965.19;;;6.36;57.45
45040;BME280;30778;53.574;7.770;2023-05-07T04:26:18;101970.38;;;6.39;57.32
45040;BME280;30778;53.574;7.770;2023-05-07T04:28:45;101966.84;;;6.55;56.96
45040;BME280;30778;53.574;7.770;2023-05-07T04:31:11;101972.94;;;6.45;56.60
45040;BME280;30778;53.574;7.770;2023-05-07T04:33:37;101967.78;;;6.42;56.97
45040;BME280;30778;53.574;7.770;2023-05-07T04:36:04;101967.56;;;6.76;56.07
45040;BME280;30778;53.574;7.770;2023-05-07T04:38:34;101972.78;;;6.68;56.07
45040;BME280;30778;53.574;7.770;2023-05-07T04:41:05;101967.56;;;6.74;56.26
45040;BME280;30778;53.574;7.770;2023-05-07T04:43:33;101970.22;;;6.63;56.21
45040;BME280;30778;53.574;7.770;2023-05-07T04:46:00;101975.56;;;6.39;57.60
45040;BME280;30778;53.574;7.770;2023-05-07T04:48:26;101968.47;;;6.73;56.46
45040;BME280;30778;53.574;7.770;2023-05-07T04:50:52;101966.72;;;6.70;56.53
45040;BME280;30778;53.574;7.770;2023-05-07T04:53:19;101972.06;;;6.46;57.55
45040;BME280;30778;53.574;7.770;2023-05-07T04:55:45;101978.06;;;6.54;57.10
45040;BME280;30778;53.574;7.770;2023-05-07T04:58:11;101969.31;;;6.72;56.79
45040;BME280;30778;53.574;7.770;2023-05-07T05:00:39;101981.59;;;6.41;57.30
45040;BME280;30778;53.574;7.770;2023-05-07T05:03:06;101975.63;;;6.22;57.89
45040;BME280;30778;53.574;7.770;2023-05-07T05:05:32;101976.34;;;6.58;57.13
45040;BME280;30778;53.574;7.770;2023-05-07T05:07:58;101976.41;;;6.41;57.31
45040;BME280;30778;53.574;7.770;2023-05-07T05:10:24;101985.13;;;6.29;57.85
45040;BME280;30778;53.574;7.770;2023-05-07T05:12:51;101982.53;;;6.24;57.60
45040;BME280;30778;53.574;7.770;2023-05-07T05:15:16;101986.75;;;6.53;57.03
45040;BME280;30778;53.574;7.770;2023-05-07T05:17:42;101979.94;;;6.35;57.41
45040;BME280;30778;53.574;7.770;2023-05-07T05:20:08;101998.00;;;6.50;56.93
45040;BME280;30778;53.574;7.770;2023-05-07T05:22:35;101985.75;;;6.73;56.64
45040;BME280;30778;53.574;7.770;2023-05-07T05:25:01;101985.91;;;6.51;56.96
45040;BME280;30778;53.574;7.770;2023-05-07T05:27:30;101992.91;;;6.34;57.59
45040;BME280;30778;53.574;7.770;2023-05-07T05:29:55;102006.63;;;6.57;57.14
45040;BME280;30778;53.574;7.770;2023-05-07T05:32:21;101998.06;;;6.44;57.48
45040;BME280;30778;53.574;7.770;2023-05-07T05:34:48;102001.47;;;6.51;56.76
45040;BME280;30778;53.574;7.770;2023-05-07T05:37:13;102007.56;;;6.45;56.96
45040;BME280;30778;53.574;7.770;2023-05-07T05:39:45;102007.66;;;6.18;57.43
45040;BME280;30778;53.574;7.770;2023-05-07T05:42:11;102005.66;;;6.78;56.42
45040;BME280;30778;53.574;7.770;2023-05-07T05:44:36;102002.19;;;6.79;55.86
45040;BME280;30778;53.574;7.770;2023-05-07T05:47:02;102007.34;;;6.84;55.98
45040;BME280;30778;53.574;7.770;2023-05-07T05:49:29;102002.38;;;6.45;56.81
45040;BME280;30778;53.574;7.770;2023-05-07T05:51:54;102008.47;;;6.31;57.28
45040;BME280;30778;53.574;7.770;2023-05-07T05:54:23;102001.47;;;6.49;56.44
45040;BME280;30778;53.574;7.770;2023-05-07T05:56:49;102013.47;;;6.70;56.05
45040;BME280;30778;53.574;7.770;2023-05-07T05:59:15;102013.53;;;6.63;55.58
45040;BME280;30778;53.574;7.770;2023-05-07T06:01:41;102018.03;;;6.24;56.76
45040;BME280;30778;53.574;7.770;2023-05-07T06:04:07;102017.16;;;6.22;57.06
45040;BME280;30778;53.574;7.770;2023-05-07T06:06:33;102015.44;;;6.12;57.04
45040;BME280;30778;53.574;7.770;2023-05-07T06:09:00;102018.88;;;6.23;56.87
45040;BME280;30778;53.574;7.770;2023-05-07T06:11:36;102021.25;;;6.77;55.73
45040;BME280;30778;53.574;7.770;2023-05-07T06:14:02;102023.16;;;6.41;56.14
45040;BME280;30778;53.574;7.770;2023-05-07T06:16:29;102005.81;;;6.47;55.99
45040;BME280;30778;53.574;7.770;2023-05-07T06:18:56;102021.31;;;6.61;55.79
45040;BME280;30778;53.574;7.770;2023-05-07T06:21:21;102026.50;;;6.69;55.81
45040;BME280;30778;53.574;7.770;2023-05-07T06:23:47;102024.88;;;6.46;56.17
45040;BME280;30778;53.574;7.770;2023-05-07T06:26:32;102030.06;;;6.46;56.13
45040;BME280;30778;53.574;7.770;2023-05-07T06:28:58;102044.72;;;6.61;55.83
45040;BME280;30778;53.574;7.770;2023-05-07T06:31:30;102043.81;;;6.64;55.79
45040;BME280;30778;53.574;7.770;2023-05-07T06:34:02;102041.31;;;6.48;55.52
45040;BME280;30778;53.574;7.770;2023-05-07T06:36:33;102039.50;;;6.61;55.41
45040;BME280;30778;53.574;7.770;2023-05-07T06:39:04;102042.06;;;6.72;55.01
45040;BME280;30778;53.574;7.770;2023-05-07T06:41:29;102042.09;;;6.69;55.62
45040;BME280;30778;53.574;7.770;2023-05-07T06:44:00;102045.41;;;6.94;54.97
45040;BME280;30778;53.574;7.770;2023-05-07T06:46:34;102054.19;;;6.76;55.79
45040;BME280;30778;53.574;7.770;2023-05-07T06:49:00;102052.59;;;6.44;57.09
45040;BME280;30778;53.574;7.770;2023-05-07T06:51:26;102049.06;;;6.55;57.11
45040;BME280;30778;53.574;7.770;2023-05-07T06:53:53;102050.75;;;6.62;57.04
45040;BME280;30778;53.574;7.770;2023-05-07T06:56:19;102046.41;;;6.64;57.01
45040;BME280;30778;53.574;7.770;2023-05-07T06:58:46;102049.13;;;6.42;57.41
45040;BME280;30778;53.574;7.770;2023-05-07T07:01:12;102049.09;;;6.52;57.37
45040;BME280;30778;53.574;7.770;2023-05-07T07:03:40;102043.81;;;6.72;57.17
45040;BME280;30778;53.574;7.770;2023-05-07T07:06:07;102049.94;;;6.57;57.46
45040;BME280;30778;53.574;7.770;2023-05-07T07:08:33;102049.13;;;6.48;57.98
45040;BME280;30778;53.574;7.770;2023-05-07T07:11:00;102051.59;;;6.70;57.21
45040;BME280;30778;53.574;7.770;2023-05-07T07:13:28;102048.09;;;6.77;57.32
45040;BME280;30778;53.574;7.770;2023-05-07T07:15:57;102049.00;;;6.70;57.41
45040;BME280;30778;53.574;7.770;2023-05-07T07:18:23;102049.69;;;7.00;56.72
45040;BME280;30778;53.574;7.770;2023-05-07T07:20:52;102056.78;;;6.78;57.30
45040;BME280;30778;53.574;7.770;2023-05-07T07:23:18;102050.59;;;6.96;56.73
45040;BME280;30778;53.574;7.770;2023-05-07T07:25:43;102053.09;;;7.16;56.35
45040;BME280;30778;53.574;7.770;2023-05-07T07:28:10;102051.34;;;7.18;56.34
45040;BME280;30778;53.574;7.770;2023-05-07T07:30:37;102053.97;;;7.10;56.44
45040;BME280;30778;53.574;7.770;2023-05-07T07:33:03;102047.16;;;6.90;56.64
45040;BME280;30778;53.574;7.770;2023-05-07T07:35:32;102046.28;;;6.90;57.00
45040;BME280;30778;53.574;7.770;2023-05-07T07:38:01;102050.59;;;6.93;57.22
45040;BME280;30778;53.574;7.770;2023-05-07T07:40:27;102053.94;;;7.16;56.54
45040;BME280;30778;53.574;7.770;2023-05-07T07:42:53;102047.16;;;6.94;56.54
45040;BME280;30778;53.574;7.770;2023-05-07T07:45:19;102049.63;;;7.10;56.17
45040;BME280;30778;53.574;7.770;2023-05-07T07:47:47;102061.06;;;6.83;57.04
45040;BME280;30778;53.574;7.770;2023-05-07T07:50:12;102059.38;;;6.76;57.12
45040;BME280;30778;53.574;7.770;2023-05-07T07:52:38;102066.34;;;6.65;57.71
45040;BME280;30778;53.574;7.770;2023-05-07T07:55:06;102057.41;;;7.18;56.32
45040;BME280;30778;53.574;7.770;2023-05-07T07:57:32;102062.59;;;7.15;56.50
45040;BME280;30778;53.574;7.770;2023-05-07T07:59:58;102057.59;;;6.81;57.38
45040;BME280;30778;53.574;7.770;2023-05-07T08:02:24;102067.13;;;6.84;57.45
45040;BME280;30778;53.574;7.770;2023-05-07T08:04:50;102064.56;;;6.76;57.90
45040;BME280;30778;53.574;7.770;2023-05-07T08:07:17;102063.69;;;6.77;58.00
45040;BME280;30778;53.574;7.770;2023-05-07T08:09:47;102074.94;;;6.79;57.83
45040;BME280;30778;53.574;7.770;2023-05-07T08:12:15;102071.41;;;6.94;57.30
45040;BME280;30778;53.574;7.770;2023-05-07T08:14:41;102065.38;;;6.87;57.84
45040;BME280;30778;53.574;7.770;2023-05-07T08:17:07;102070.56;;;6.87;57.39
45040;BME280;30778;53.574;7.770;2023-05-07T08:19:36;102067.72;;;7.24;57.02
45040;BME280;30778;53.574;7.770;2023-05-07T08:22:03;102070.28;;;7.33;56.94
45040;BME280;30778;53.574;7.770;2023-05-07T08:24:30;102070.50;;;7.00;57.13
45040;BME280;30778;53.574;7.770;2023-05-07T08:26:56;102064.34;;;7.16;57.27
45040;BME280;30778;53.574;7.770;2023-05-07T08:29:21;102068.63;;;7.22;57.29
45040;BME280;30778;53.574;7.770;2023-05-07T08:31:48;102065.41;;;6.84;57.98
45040;BME280;30778;53.574;7.770;2023-05-07T08:34:13;102069.63;;;7.01;57.82
45040;BME280;30778;53.574;7.770;2023-05-07T08:36:42;102068.84;;;6.86;57.56
45040;BME280;30778;53.574;7.770;2023-05-07T08:39:09;102070.50;;;7.00;57.48
45040;BME280;30778;53.574;7.770;2023-05-07T08:41:34;102069.81;;;6.67;58.14
45040;BME280;30778;53.574;7.770;2023-05-07T08:44:02;102072.34;;;6.82;57.73
45040;BME280;30778;53.574;7.770;2023-05-07T08:46:31;102078.25;;;7.06;58.00
45040;BME280;30778;53.574;7.770;2023-05-07T08:48:58;102078.34;;;6.94;57.84
45040;BME280;30778;53.574;7.770;2023-05-07T08:51:24;102077.44;;;6.93;57.88
45040;BME280;30778;53.574;7.770;2023-05-07T08:53:50;102082.72;;;6.84;57.95
45040;BME280;30778;53.574;7.770;2023-05-07T08:56:22;102083.44;;;7.12;57.37
45040;BME280;30778;53.574;7.770;2023-05-07T08:58:50;102080.03;;;7.01;57.27
45040;BME280;30778;53.574;7.770;2023-05-07T09:01:16;102083.59;;;6.75;57.73
45040;BME280;30778;53.574;7.770;2023-05-07T09:03:46;102081.91;;;6.68;58.34
45040;BME280;30778;53.574;7.770;2023-05-07T09:06:13;102087.06;;;6.80;57.86
45040;BME280;30778;53.574;7.770;2023-05-07T09:08:39;102085.47;;;6.52;58.31
45040;BME280;30778;53.574;7.770;2023-05-07T09:11:06;102085.31;;;6.84;58.32
45040;BME280;30778;53.574;7.770;2023-05-07T09:13:32;102090.38;;;7.10;57.07
45040;BME280;30778;53.574;7.770;2023-05-07T09:16:10;102088.59;;;7.18;57.22
45040;BME280;30778;53.574;7.770;2023-05-07T09:18:40;102091.25;;;7.07;57.52
45040;BME280;30778;53.574;7.770;2023-05-07T09:21:09;102086.09;;;7.01;57.53
45040;BME280;30778;53.574;7.770;2023-05-07T09:23:35;102084.44;;;6.86;57.72
45040;BME280;30778;53.574;7.770;2023-05-07T09:26:01;102087.81;;;7.01;58.05
45040;BME280;30778;53.574;7.770;2023-05-07T09:28:30;102092.09;;;7.14;57.94
45040;BME280;30778;53.574;7.770;2023-05-07T09:30:55;102085.22;;;7.01;58.14
45040;BME280;30778;53.574;7.770;2023-05-07T09:33:21;102079.84;;;7.31;57.35
45040;BME280;30778;53.574;7.770;2023-05-07T09:35:53;102085.13;;;7.16;57.69
45040;BME280;30778;53.574;7.770;2023-05-07T09:38:21;102088.72;;;6.97;58.19
45040;BME280;30778;53.574;7.770;2023-05-07T09:41:01;102083.34;;;7.24;57.45
45040;BME280;30778;53.574;7.770;2023-05-07T09:43:32;102084.09;;;7.42;57.50
45040;BME280;30778;53.574;7.770;2023-05-07T09:46:11;102069.50;;;7.21;57.73
45040;BME280;30778;53.574;7.770;2023-05-07T09:48:38;102080.66;;;7.35;57.22
45040;BME280;30778;53.574;7.770;2023-05-07T09:51:30;102075.44;;;7.40;56.86
45040;BME280;30778;53.574;7.770;2023-05-07T09:54:00;102081.22;;;7.76;56.63
45040;BME280;30778;53.574;7.770;2023-05-07T09:56:30;102079.81;;;7.36;56.44
45040;BME280;30778;53.574;7.770;2023-05-07T09:59:00;102078.03;;;7.43;56.81
45040;BME280;30778;53.574;7.770;2023-05-07T10:01:30;102076.97;;;7.68;56.43
45040;BME280;30778;53.574;7.770;2023-05-07T10:03:57;102078.34;;;8.06;55.75
45040;BME280;30778;53.574;7.770;2023-05-07T10:06:25;102086.97;;;8.13;55.54
45040;BME280;30778;53.574;7.770;2023-05-07T10:08:54;102090.81;;;8.59;54.66
45040;BME280;30778;53.574;7.770;2023-05-07T10:11:22;102088.38;;;8.42;54.37
45040;BME280;30778;53.574;7.770;2023-05-07T10:13:48;102090.41;;;8.92;54.80
45040;BME280;30778;53.574;7.770;2023-05-07T10:16:14;102089.75;;;8.73;54.40
45040;BME280;30778;53.574;7.770;2023-05-07T10:18:46;102095.63;;;8.89;53.74
45040;BME280;30778;53.574;7.770;2023-05-07T10:21:18;102106.16;;;8.83;53.22
45040;BME280;30778;53.574;7.770;2023-05-07T10:23:49;102101.06;;;8.74;54.23
45040;BME280;30778;53.574;7.770;2023-05-07T10:26:17;102092.75;;;8.38;53.95
45040;BME280;30778;53.574;7.770;2023-05-07T10:28:45;102097.56;;;8.75;54.17
45040;BME280;30778;53.574;7.770;2023-05-07T10:34:09;102100.22;;;8.69;53.07
45040;BME280;30778;53.574;7.770;2023-05-07T10:36:36;102097.41;;;8.87;52.38
45040;BME280;30778;53.574;7.770;2023-05-07T10:39:02;102087.38;;;9.22;52.60
45040;BME280;30778;53.574;7.770;2023-05-07T10:41:28;102086.91;;;10.04;51.77
45040;BME280;30778;53.574;7.770;2023-05-07T10:43:54;102094.59;;;10.11;50.06
45040;BME280;30778;53.574;7.770;2023-05-07T10:46:25;102098.13;;;10.10;50.29
45040;BME280;30778;53.574;7.770;2023-05-07T10:51:28;102097.38;;;10.02;49.42
45040;BME280;30778;53.574;7.770;2023-05-07T10:56:39;102096.88;;;11.51;47.46
45040;BME280;30778;53.574;7.770;2023-05-07T11:02:00;102090.72;;;11.15;47.31
45040;BME280;30778;53.574;7.770;2023-05-07T11:05:20;102090.94;;;11.05;47.50
45040;BME280;30778;53.574;7.770;2023-05-07T11:07:57;102080.44;;;11.44;46.82
45040;BME280;30778;53.574;7.770;2023-05-07T11:10:55;102070.84;;;11.45;47.12
45040;BME280;30778;53.574;7.770;2023-05-07T11:13:46;102074.72;;;11.29;47.36
45040;BME280;30778;53.574;7.770;2023-05-07T11:16:24;102070.41;;;11.26;46.71
45040;BME280;30778;53.574;7.770;2023-05-07T11:18:58;102078.56;;;11.50;46.15
45040;BME280;30778;53.574;7.770;2023-05-07T11:24:20;102078.56;;;11.50;47.36
45040;BME280;30778;53.574;7.770;2023-05-07T11:27:00;102085.72;;;11.79;45.60
45040;BME280;30778;53.574;7.770;2023-05-07T11:29:28;102081.63;;;11.67;45.40
45040;BME280;30778;53.574;7.770;2023-05-07T11:32:01;102087.09;;;11.58;45.48
45040;BME280;30778;53.574;7.770;2023-05-07T11:34:35;102083.78;;;11.87;46.06
45040;BME280;30778;53.574;7.770;2023-05-07T11:37:02;102092.94;;;11.33;45.98
45040;BME280;30778;53.574;7.770;2023-05-07T11:42:32;102086.56;;;11.43;45.74
45040;BME280;30778;53.574;7.770;2023-05-07T11:44:58;102077.16;;;11.71;45.46
45040;BME280;30778;53.574;7.770;2023-05-07T11:47:24;102080.56;;;11.74;45.01
45040;BME280;30778;53.574;7.770;2023-05-07T11:49:52;102069.22;;;12.08;45.65
45040;BME280;30778;53.574;7.770;2023-05-07T11:52:19;102069.19;;;12.41;44.73
45040;BME280;30778;53.574;7.770;2023-05-07T11:54:52;102074.00;;;12.56;43.89
45040;BME280;30778;53.574;7.770;2023-05-07T11:57:18;102080.16;;;12.85;43.61
45040;BME280;30778;53.574;7.770;2023-05-07T11:59:44;102078.31;;;12.87;43.40
45040;BME280;30778;53.574;7.770;2023-05-07T12:02:10;102074.38;;;13.02;44.03
45040;BME280;30778;53.574;7.770;2023-05-07T12:04:38;102072.91;;;13.75;41.36
45040;BME280;30778;53.574;7.770;2023-05-07T12:07:03;102075.19;;;13.85;42.10
45040;BME280;30778;53.574;7.770;2023-05-07T12:09:29;102072.28;;;13.40;42.38
45040;BME280;30778;53.574;7.770;2023-05-07T12:11:55;102062.09;;;13.59;41.67
45040;BME280;30778;53.574;7.770;2023-05-07T12:14:21;102075.34;;;13.27;42.62
45040;BME280;30778;53.574;7.770;2023-05-07T12:16:47;102060.13;;;13.10;42.54
45040;BME280;30778;53.574;7.770;2023-05-07T12:19:13;102060.03;;;13.67;41.86
45040;BME280;30778;53.574;7.770;2023-05-07T12:21:40;102075.69;;;12.57;43.47
45040;BME280;30778;53.574;7.770;2023-05-07T12:24:05;102071.94;;;13.24;42.50
45040;BME280;30778;53.574;7.770;2023-05-07T12:26:31;102061.44;;;13.50;42.26
45040;BME280;30778;53.574;7.770;2023-05-07T12:28:57;102060.97;;;13.66;41.90
45040;BME280;30778;53.574;7.770;2023-05-07T12:31:25;102060.19;;;13.87;42.23
45040;BME280;30778;53.574;7.770;2023-05-07T12:33:51;102069.06;;;14.10;41.60
45040;BME280;30778;53.574;7.770;2023-05-07T12:36:16;102071.19;;;13.73;41.14
45040;BME280;30778;53.574;7.770;2023-05-07T12:38:42;102074.56;;;13.24;42.44
45040;BME280;30778;53.574;7.770;2023-05-07T12:41:09;102081.78;;;13.17;42.15
45040;BME280;30778;53.574;7.770;2023-05-07T12:43:36;102069.97;;;14.09;41.15
45040;BME280;30778;53.574;7.770;2023-05-07T12:46:07;102059.69;;;14.73;40.31
45040;BME280;30778;53.574;7.770;2023-05-07T12:48:33;102072.78;;;14.03;40.77
45040;BME280;30778;53.574;7.770;2023-05-07T12:51:00;102084.25;;;14.25;40.71
45040;BME280;30778;53.574;7.770;2023-05-07T12:53:26;102068.25;;;14.79;40.33
45040;BME280;30778;53.574;7.770;2023-05-07T12:55:57;102067.53;;;14.75;39.16
45040;BME280;30778;53.574;7.770;2023-05-07T12:58:25;102078.97;;;14.74;40.23
45040;BME280;30778;53.574;7.770;2023-05-07T13:00:52;102065.47;;;15.05;38.76
45040;BME280;30778;53.574;7.770;2023-05-07T13:03:26;102070.09;;;15.21;38.72
45040;BME280;30778;53.574;7.770;2023-05-07T13:05:52;102088.34;;;14.81;38.94
45040;BME280;30778;53.574;7.770;2023-05-07T13:08:30;102085.13;;;14.51;39.35
45040;BME280;30778;53.574;7.770;2023-05-07T13:11:00;102076.50;;;14.93;39.42
45040;BME280;30778;53.574;7.770;2023-05-07T13:13:32;102072.22;;;14.90;39.49
45040;BME280;30778;53.574;7.770;2023-05-07T13:15:58;102068.88;;;14.38;40.21
45040;BME280;30778;53.574;7.770;2023-05-07T13:18:25;102069.47;;;14.48;40.33